Time;durP1;ratioP1;P1;durP2;ratioP2;P2;SDS_P1;SDS_P2;PMS_P1;PMS_P2;Temp;Humidity;BMP_temperature;BMP_pressure;BME280_temperature;BME280_humidity;BME280_pressure;Samples;Min_cycle;Max_cycle;Signal;HPM_P1;HPM_P2
2021/03/30 00:01:15;;;;;;;8.35;3.47;;;;;;;;;;5058705;28;20056;-86
2021/03/30 00:03:41;;;;;;;10.38;3.25;;;;;;;;;;5062363;28;20023;-87
2021/03/30 00:06:07;;;;;;;8.45;3.15;;;;;;;;;;5060653;28;20055;-86
2021/03/30 00:08:33;;;;;;;7.20;3.22;;;;;;;;;;5058957;28;20040;-86
2021/03/30 00:10:59;;;;;;;8.00;3.63;;;;;;;;;;5060482;28;20028;-86
2021/03/30 00:13:25;;;;;;;11.98;3.53;;;;;;;;;;5060117;28;20021;-86
2021/03/30 00:15:51;;;;;;;10.45;3.72;;;;;;;;;;5062097;28;20151;-86
2021/03/30 00:18:17;;;;;;;10.60;3.60;;;;;;;;;;5058435;28;20029;-86
2021/03/30 00:20:43;;;;;;;8.77;3.40;;;;;;;;;;5057041;28;20449;-86
2021/03/30 00:23:09;;;;;;;8.48;3.58;;;;;;;;;;5059144;28;20111;-87
2021/03/30 00:25:35;;;;;;;9.43;3.40;;;;;;;;;;5064733;28;20024;-87
2021/03/30 00:28:01;;;;;;;11.63;3.50;;;;;;;;;;5057224;28;20500;-86
2021/03/30 00:30:27;;;;;;;7.45;3.47;;;;;;;;;;5057824;28;20400;-86
2021/03/30 00:32:53;;;;;;;7.68;3.17;;;;;;;;;;5054106;28;20040;-86
2021/03/30 00:35:20;;;;;;;8.55;3.85;;;;;;;;;;5058850;28;20059;-86
2021/03/30 00:37:46;;;;;;;5.28;2.97;;;;;;;;;;5058928;28;20620;-86
2021/03/30 00:40:12;;;;;;;8.00;3.88;;;;;;;;;;5058680;28;20036;-86
2021/03/30 00:42:39;;;;;;;10.32;4.35;;;;;;;;;;5055726;28;20044;-86
2021/03/30 00:45:06;;;;;;;10.35;4.20;;;;;;;;;;5057034;28;20029;-86
2021/03/30 00:47:32;;;;;;;11.43;4.13;;;;;;;;;;5056718;28;20025;-86
2021/03/30 00:49:59;;;;;;;13.07;3.72;;;;;;;;;;5058406;28;20029;-87
2021/03/30 00:52:25;;;;;;;6.72;3.60;;;;;;;;;;5058738;28;20033;-86
2021/03/30 00:54:51;;;;;;;9.82;3.50;;;;;;;;;;5066417;28;20029;-86
2021/03/30 00:57:18;;;;;;;10.80;3.47;;;;;;;;;;5061622;28;20035;-86
2021/03/30 00:59:44;;;;;;;6.75;3.50;;;;;;;;;;5062742;28;20032;-86
2021/03/30 01:02:10;;;;;;;7.97;3.65;;;;;;;;;;5057099;28;20034;-86
2021/03/30 01:04:36;;;;;;;12.18;3.65;;;;;;;;;;5054328;28;20028;-86
2021/03/30 01:07:02;;;;;;;8.20;3.33;;;;;;;;;;5061430;28;20120;-86
2021/03/30 01:09:51;;;;;;;6.63;3.55;;;;;;;;;;5060889;28;20091;-86
2021/03/30 01:12:35;;;;;;;6.85;3.58;;;;;;;;;;5059972;28;20021;-87
2021/03/30 01:15:08;;;;;;;9.02;4.03;;;;;;;;;;5060937;28;20033;-86
2021/03/30 01:17:54;;;;;;;7.10;3.47;;;;;;;;;;5062316;28;20052;-87
2021/03/30 01:20:39;;;;;;;6.43;3.58;;;;;;;;;;5036671;28;20037;-87
2021/03/30 01:23:15;;;;;;;9.38;3.60;;;;;;;;;;5059257;28;20531;-87
2021/03/30 01:25:44;;;;;;;10.82;4.10;;;;;;;;;;5065997;28;20024;-87
2021/03/30 01:28:25;;;;;;;9.63;4.43;;;;;;;;;;5054593;28;20101;-87
2021/03/30 01:30:52;;;;;;;7.78;3.80;;;;;;;;;;5050428;28;20031;-87
2021/03/30 01:33:21;;;;;;;7.72;3.33;;;;;;;;;;5060015;28;20025;-87
2021/03/30 01:35:49;;;;;;;8.82;4.28;;;;;;;;;;5058519;28;20541;-87
2021/03/30 01:38:15;;;;;;;9.23;4.13;;;;;;;;;;5072503;28;20479;-87
2021/03/30 01:40:42;;;;;;;6.55;3.60;;;;;;;;;;5067653;28;20029;-87
2021/03/30 01:43:09;;;;;;;10.57;4.53;;;;;;;;;;5065288;28;20059;-87
2021/03/30 01:45:35;;;;;;;7.03;3.55;;;;;;;;;;5068020;28;20036;-87
2021/03/30 01:48:02;;;;;;;7.25;3.25;;;;;;;;;;5063669;28;20037;-87
2021/03/30 01:50:28;;;;;;;8.75;3.78;;;;;;;;;;5076014;28;20460;-87
2021/03/30 01:52:57;;;;;;;9.90;4.15;;;;;;;;;;5057313;28;20029;-87
2021/03/30 01:55:23;;;;;;;10.73;4.32;;;;;;;;;;5065605;28;20033;-87
2021/03/30 01:57:53;;;;;;;6.20;3.83;;;;;;;;;;5066602;28;20048;-86
2021/03/30 02:00:23;;;;;;;6.95;3.90;;;;;;;;;;5067539;28;20067;-87
2021/03/30 02:02:50;;;;;;;8.07;3.80;;;;;;;;;;5064711;28;20025;-87
2021/03/30 02:05:16;;;;;;;9.60;4.05;;;;;;;;;;5065996;28;20021;-86
2021/03/30 02:07:43;;;;;;;9.40;4.25;;;;;;;;;;5061433;28;20100;-86
2021/03/30 02:10:21;;;;;;;9.95;4.35;;;;;;;;;;5061028;28;20036;-86
2021/03/30 02:12:47;;;;;;;7.85;4.30;;;;;;;;;;5060196;28;20021;-86
2021/03/30 02:15:13;;;;;;;10.15;4.57;;;;;;;;;;5063978;28;20151;-86
2021/03/30 02:18:11;;;;;;;17.05;4.80;;;;;;;;;;5056573;28;20051;-87
2021/03/30 02:20:39;;;;;;;12.68;4.40;;;;;;;;;;5033548;28;20044;-87
2021/03/30 02:23:10;;;;;;;9.82;4.15;;;;;;;;;;5089085;28;20036;-86
2021/03/30 02:25:37;;;;;;;7.68;4.18;;;;;;;;;;5073061;28;20037;-86
2021/03/30 02:28:09;;;;;;;9.93;4.63;;;;;;;;;;5072133;28;20036;-86
2021/03/30 02:30:36;;;;;;;8.00;4.22;;;;;;;;;;5059907;28;20028;-86
2021/03/30 02:33:03;;;;;;;8.27;3.97;;;;;;;;;;5062623;28;20071;-86
2021/03/30 02:35:29;;;;;;;9.43;3.88;;;;;;;;;;5069607;28;20025;-85
2021/03/30 02:37:56;;;;;;;10.88;4.95;;;;;;;;;;5063780;28;20528;-86
2021/03/30 02:40:22;;;;;;;10.65;4.25;;;;;;;;;;5075537;28;20058;-85
2021/03/30 02:42:49;;;;;;;8.05;3.88;;;;;;;;;;5062637;28;20025;-86
2021/03/30 02:45:17;;;;;;;5.38;3.47;;;;;;;;;;5064376;28;20451;-85
2021/03/30 02:47:44;;;;;;;6.63;4.13;;;;;;;;;;5064164;28;20025;-85
2021/03/30 02:50:11;;;;;;;9.15;3.80;;;;;;;;;;5066110;28;20438;-86
2021/03/30 02:52:37;;;;;;;8.63;4.35;;;;;;;;;;5052060;28;20021;-86
2021/03/30 02:55:04;;;;;;;9.00;4.43;;;;;;;;;;5056096;28;20032;-85
2021/03/30 02:57:31;;;;;;;12.25;4.35;;;;;;;;;;5061329;28;20053;-85
2021/03/30 02:59:57;;;;;;;9.20;4.00;;;;;;;;;;5062611;28;20028;-85
2021/03/30 03:02:24;;;;;;;11.95;4.40;;;;;;;;;;5066007;28;20055;-86
2021/03/30 03:04:50;;;;;;;7.40;4.40;;;;;;;;;;5065703;28;20024;-86
2021/03/30 03:07:17;;;;;;;9.68;4.90;;;;;;;;;;5064465;28;20049;-86
2021/03/30 03:09:44;;;;;;;9.68;4.35;;;;;;;;;;5066642;28;20093;-85
2021/03/30 03:12:11;;;;;;;8.85;4.88;;;;;;;;;;5062109;28;20100;-85
2021/03/30 03:14:39;;;;;;;9.60;4.45;;;;;;;;;;5070050;28;20103;-86
2021/03/30 03:17:05;;;;;;;10.52;4.97;;;;;;;;;;5067344;28;20033;-86
2021/03/30 03:19:32;;;;;;;9.30;5.03;;;;;;;;;;5063886;28;20052;-86
2021/03/30 03:21:58;;;;;;;11.77;5.40;;;;;;;;;;5061772;28;20032;-86
2021/03/30 03:24:24;;;;;;;8.32;4.40;;;;;;;;;;5065389;28;20043;-85
2021/03/30 03:26:51;;;;;;;10.07;4.88;;;;;;;;;;5064977;28;20029;-86
2021/03/30 03:29:18;;;;;;;13.50;5.40;;;;;;;;;;5064845;28;20025;-86
2021/03/30 03:31:44;;;;;;;10.77;4.85;;;;;;;;;;5066504;28;20032;-86
2021/03/30 03:34:12;;;;;;;13.70;4.88;;;;;;;;;;5065508;28;20029;-85
2021/03/30 03:36:38;;;;;;;7.15;4.25;;;;;;;;;;5063886;28;20029;-86
2021/03/30 03:39:05;;;;;;;10.77;4.38;;;;;;;;;;5067084;28;20033;-86
2021/03/30 03:41:31;;;;;;;9.70;5.03;;;;;;;;;;5060240;28;20097;-86
2021/03/30 03:43:57;;;;;;;12.35;5.38;;;;;;;;;;5059635;28;20033;-85
2021/03/30 03:46:23;;;;;;;8.77;5.07;;;;;;;;;;5057695;28;20059;-86
2021/03/30 03:48:49;;;;;;;11.20;4.93;;;;;;;;;;5066479;28;20279;-86
2021/03/30 03:51:15;;;;;;;11.32;4.22;;;;;;;;;;5061380;28;20083;-86
2021/03/30 03:53:42;;;;;;;8.98;5.03;;;;;;;;;;5060887;28;20025;-86
2021/03/30 03:56:08;;;;;;;14.85;5.28;;;;;;;;;;5058820;28;20404;-86
2021/03/30 03:58:40;;;;;;;7.97;4.55;;;;;;;;;;5072768;28;20017;-85
2021/03/30 04:01:09;;;;;;;11.70;5.40;;;;;;;;;;5054665;28;20115;-86
2021/03/30 04:04:02;;;;;;;10.20;5.25;;;;;;;;;;5058782;28;20047;-85
2021/03/30 04:06:35;;;;;;;9.43;4.53;;;;;;;;;;5066028;28;20036;-86
2021/03/30 04:09:03;;;;;;;14.47;5.43;;;;;;;;;;5067956;28;20016;-86
2021/03/30 04:11:30;;;;;;;11.60;5.32;;;;;;;;;;5062950;28;20025;-86
2021/03/30 04:13:57;;;;;;;10.05;5.30;;;;;;;;;;5063140;28;20060;-86
2021/03/30 04:16:23;;;;;;;12.68;5.45;;;;;;;;;;5064407;28;20127;-86
2021/03/30 04:18:49;;;;;;;12.85;5.53;;;;;;;;;;5062664;28;20461;-86
2021/03/30 04:21:21;;;;;;;8.95;5.35;;;;;;;;;;5062647;28;20024;-86
2021/03/30 04:23:48;;;;;;;11.70;5.13;;;;;;;;;;5058169;28;20144;-86
2021/03/30 04:26:14;;;;;;;9.43;5.35;;;;;;;;;;5055345;28;20057;-86
2021/03/30 04:28:40;;;;;;;10.88;5.53;;;;;;;;;;5049683;28;20078;-86
2021/03/30 04:31:06;;;;;;;9.05;4.38;;;;;;;;;;5057957;28;20079;-86
2021/03/30 04:33:32;;;;;;;10.15;5.22;;;;;;;;;;5066194;28;20029;-86
2021/03/30 04:35:58;;;;;;;9.10;4.80;;;;;;;;;;5065828;28;20037;-86
2021/03/30 04:38:24;;;;;;;6.95;5.22;;;;;;;;;;5070327;28;20027;-86
2021/03/30 04:40:53;;;;;;;9.75;4.97;;;;;;;;;;5061827;28;20470;-85
2021/03/30 04:43:20;;;;;;;9.15;4.80;;;;;;;;;;5057760;28;20018;-85
2021/03/30 04:45:46;;;;;;;9.02;4.90;;;;;;;;;;5058633;28;20055;-85
2021/03/30 04:48:12;;;;;;;9.52;4.70;;;;;;;;;;5068224;28;20036;-85
2021/03/30 04:50:38;;;;;;;13.70;5.75;;;;;;;;;;5059108;28;20086;-85
2021/03/30 04:53:04;;;;;;;9.73;5.10;;;;;;;;;;5055555;28;20036;-85
2021/03/30 04:55:30;;;;;;;9.35;5.80;;;;;;;;;;5064623;28;20036;-85
2021/03/30 04:57:56;;;;;;;10.38;4.40;;;;;;;;;;5048443;28;20026;-85
2021/03/30 05:00:22;;;;;;;15.07;5.82;;;;;;;;;;5060143;28;20017;-85
2021/03/30 05:02:48;;;;;;;11.52;5.20;;;;;;;;;;5065024;28;20074;-85
2021/03/30 05:05:15;;;;;;;10.05;4.93;;;;;;;;;;5059823;28;20163;-85
2021/03/30 05:07:41;;;;;;;8.75;4.82;;;;;;;;;;5064782;28;20025;-85
2021/03/30 05:10:07;;;;;;;10.80;5.13;;;;;;;;;;5061083;28;20036;-86
2021/03/30 05:12:33;;;;;;;9.18;4.65;;;;;;;;;;5062384;28;20032;-86
2021/03/30 05:14:59;;;;;;;10.80;5.18;;;;;;;;;;5052451;28;20041;-86
2021/03/30 05:17:25;;;;;;;10.35;5.50;;;;;;;;;;5059324;28;20036;-85
2021/03/30 05:19:51;;;;;;;15.98;5.50;;;;;;;;;;5057637;28;20028;-85
2021/03/30 05:22:17;;;;;;;13.02;5.20;;;;;;;;;;5062479;28;20025;-86
2021/03/30 05:24:43;;;;;;;11.77;5.05;;;;;;;;;;5059761;28;20051;-86
2021/03/30 05:27:09;;;;;;;14.20;5.50;;;;;;;;;;5062529;28;20032;-86
2021/03/30 05:29:44;;;;;;;10.00;4.78;;;;;;;;;;5058177;28;20044;-86
2021/03/30 05:32:14;;;;;;;6.85;4.43;;;;;;;;;;5059013;28;20036;-86
2021/03/30 05:34:40;;;;;;;13.15;5.55;;;;;;;;;;5064412;28;20112;-86
2021/03/30 05:37:06;;;;;;;10.18;5.75;;;;;;;;;;5052662;28;20492;-85
2021/03/30 05:39:33;;;;;;;10.93;4.88;;;;;;;;;;5057274;28;20120;-86
2021/03/30 05:41:59;;;;;;;9.43;4.93;;;;;;;;;;5070303;28;20111;-86
2021/03/30 05:44:26;;;;;;;9.20;5.03;;;;;;;;;;5059070;28;20021;-86
2021/03/30 05:49:30;;;;;;;8.40;5.28;;;;;;;;;;5059922;28;20040;-86
2021/03/30 05:51:58;;;;;;;7.85;4.68;;;;;;;;;;5058105;28;20449;-86
2021/03/30 05:54:25;;;;;;;9.18;4.82;;;;;;;;;;5058363;28;20166;-86
2021/03/30 05:56:51;;;;;;;8.93;5.05;;;;;;;;;;5069222;28;20031;-86
2021/03/30 05:59:17;;;;;;;10.80;5.15;;;;;;;;;;5058048;28;20079;-86
2021/03/30 06:01:44;;;;;;;9.57;4.88;;;;;;;;;;5068773;28;20025;-86
2021/03/30 06:04:10;;;;;;;11.70;5.13;;;;;;;;;;5046847;28;20029;-86
2021/03/30 06:06:36;;;;;;;12.40;5.45;;;;;;;;;;5058962;28;20028;-86
2021/03/30 06:09:06;;;;;;;8.80;5.10;;;;;;;;;;5059288;28;20029;-86
2021/03/30 06:11:33;;;;;;;9.65;4.60;;;;;;;;;;5066211;28;20032;-86
2021/03/30 06:13:59;;;;;;;10.65;4.78;;;;;;;;;;5056414;28;20059;-86
2021/03/30 06:16:25;;;;;;;10.20;4.57;;;;;;;;;;5057181;28;20427;-86
2021/03/30 06:19:00;;;;;;;9.48;4.88;;;;;;;;;;5055585;28;20075;-86
2021/03/30 06:21:26;;;;;;;8.35;4.60;;;;;;;;;;5060111;28;20017;-86
2021/03/30 06:23:52;;;;;;;10.35;5.40;;;;;;;;;;5059944;28;20032;-86
2021/03/30 06:26:18;;;;;;;9.18;4.93;;;;;;;;;;5061598;28;20087;-86
2021/03/30 06:28:44;;;;;;;15.10;6.25;;;;;;;;;;5053471;28;20124;-86
2021/03/30 06:31:13;;;;;;;13.43;5.60;;;;;;;;;;5057173;28;20056;-86
2021/03/30 06:33:51;;;;;;;10.75;5.40;;;;;;;;;;5066068;28;20048;-86
2021/03/30 06:36:19;;;;;;;10.13;5.68;;;;;;;;;;5069242;28;20029;-86
2021/03/30 06:38:48;;;;;;;12.85;5.00;;;;;;;;;;5061167;28;20024;-86
2021/03/30 06:41:32;;;;;;;16.38;5.65;;;;;;;;;;5074536;28;20533;-86
2021/03/30 06:44:27;;;;;;;8.98;5.10;;;;;;;;;;5055690;28;20021;-86
2021/03/30 06:47:00;;;;;;;14.13;5.43;;;;;;;;;;5052599;28;20037;-86
2021/03/30 06:49:27;;;;;;;12.68;5.90;;;;;;;;;;5064031;28;20048;-86
2021/03/30 06:51:53;;;;;;;12.52;6.05;;;;;;;;;;5057539;28;20025;-86
2021/03/30 06:54:19;;;;;;;11.55;5.75;;;;;;;;;;5060847;28;20075;-86
2021/03/30 06:56:57;;;;;;;14.07;5.53;;;;;;;;;;5056710;28;20075;-86
2021/03/30 06:59:23;;;;;;;13.00;6.43;;;;;;;;;;5056142;28;20515;-86
2021/03/30 07:01:52;;;;;;;17.52;5.93;;;;;;;;;;5061973;28;20063;-86
2021/03/30 07:04:18;;;;;;;13.35;6.40;;;;;;;;;;5069117;28;20039;-86
2021/03/30 07:06:51;;;;;;;18.38;5.68;;;;;;;;;;5066510;28;20037;-86
2021/03/30 07:09:18;;;;;;;13.38;6.57;;;;;;;;;;5061790;28;20028;-86
2021/03/30 07:11:45;;;;;;;15.63;6.35;;;;;;;;;;5063944;28;20036;-86
2021/03/30 07:14:11;;;;;;;13.55;6.38;;;;;;;;;;5066051;28;20028;-86
2021/03/30 07:16:45;;;;;;;12.82;5.70;;;;;;;;;;5068819;28;20096;-86
2021/03/30 07:19:11;;;;;;;17.25;6.00;;;;;;;;;;5062092;28;20025;-86
2021/03/30 07:21:56;;;;;;;14.93;6.88;;;;;;;;;;5061533;28;20359;-86
2021/03/30 07:24:23;;;;;;;14.13;6.30;;;;;;;;;;5064360;28;20036;-86
2021/03/30 07:26:52;;;;;;;14.50;6.68;;;;;;;;;;5059945;28;20555;-86
2021/03/30 07:29:23;;;;;;;14.52;7.45;;;;;;;;;;5056423;28;20033;-86
2021/03/30 07:32:08;;;;;;;16.00;7.38;;;;;;;;;;5058090;28;20082;-86
2021/03/30 07:34:42;;;;;;;16.20;7.03;;;;;;;;;;5057613;28;20067;-86
2021/03/30 07:37:12;;;;;;;17.27;7.28;;;;;;;;;;5061223;28;20044;-86
2021/03/30 07:39:49;;;;;;;19.10;8.02;;;;;;;;;;5043005;28;20030;-86
2021/03/30 07:42:16;;;;;;;17.60;7.13;;;;;;;;;;5054363;28;20482;-86
2021/03/30 07:44:43;;;;;;;13.27;7.50;;;;;;;;;;5053204;28;20021;-87
2021/03/30 07:47:09;;;;;;;16.02;7.43;;;;;;;;;;5047373;28;20103;-87
2021/03/30 07:49:45;;;;;;;17.55;8.25;;;;;;;;;;5056116;28;20028;-87
2021/03/30 07:52:17;;;;;;;24.63;7.45;;;;;;;;;;5053385;28;20056;-86
2021/03/30 07:55:02;;;;;;;18.45;7.38;;;;;;;;;;5053267;28;20439;-88
2021/03/30 07:57:56;;;;;;;14.85;7.78;;;;;;;;;;5051599;28;20025;-87
2021/03/30 08:00:34;;;;;;;14.73;7.47;;;;;;;;;;5047925;28;20025;-87
2021/03/30 08:03:04;;;;;;;14.45;7.60;;;;;;;;;;5057118;28;20400;-88
2021/03/30 08:05:33;;;;;;;15.98;7.72;;;;;;;;;;5042146;28;20113;-88
2021/03/30 08:08:00;;;;;;;13.02;7.63;;;;;;;;;;5057259;28;20036;-88
2021/03/30 08:10:32;;;;;;;15.75;7.82;;;;;;;;;;5054773;28;20028;-88
2021/03/30 08:13:20;;;;;;;14.98;7.80;;;;;;;;;;5052843;28;20385;-88
2021/03/30 08:15:48;;;;;;;14.25;7.30;;;;;;;;;;5047403;28;20025;-88
2021/03/30 08:18:17;;;;;;;14.40;7.40;;;;;;;;;;5054981;28;20115;-88
2021/03/30 08:21:03;;;;;;;14.30;8.05;;;;;;;;;;5053781;28;20036;-88
2021/03/30 08:23:30;;;;;;;17.77;7.72;;;;;;;;;;5054797;28;20041;-87
2021/03/30 08:26:15;;;;;;;18.90;7.80;;;;;;;;;;5054756;28;20037;-87
2021/03/30 08:28:52;;;;;;;17.92;8.50;;;;;;;;;;5051313;28;20021;-87
2021/03/30 08:31:19;;;;;;;18.73;8.27;;;;;;;;;;5056895;28;20029;-88
2021/03/30 08:33:45;;;;;;;13.77;7.32;;;;;;;;;;5070236;28;20060;-87
2021/03/30 08:36:15;;;;;;;21.48;7.93;;;;;;;;;;5053521;28;20036;-87
2021/03/30 08:38:43;;;;;;;18.80;7.80;;;;;;;;;;5056068;28;20044;-87
2021/03/30 08:41:09;;;;;;;19.08;7.68;;;;;;;;;;5059096;28;20536;-87
2021/03/30 08:43:35;;;;;;;15.25;8.15;;;;;;;;;;5053253;28;20081;-87
2021/03/30 08:46:05;;;;;;;15.27;7.60;;;;;;;;;;5053073;28;20036;-88
2021/03/30 08:48:33;;;;;;;17.95;7.63;;;;;;;;;;5055451;28;20029;-88
2021/03/30 08:50:59;;;;;;;18.15;8.48;;;;;;;;;;5058452;28;20055;-87
2021/03/30 08:53:29;;;;;;;13.77;7.40;;;;;;;;;;5053806;28;20032;-87
2021/03/30 08:55:56;;;;;;;13.98;6.70;;;;;;;;;;5052867;28;20083;-88
2021/03/30 08:58:25;;;;;;;14.80;7.32;;;;;;;;;;5053331;28;20029;-88
2021/03/30 09:00:52;;;;;;;16.50;7.15;;;;;;;;;;5052388;28;20027;-88
2021/03/30 09:03:24;;;;;;;12.85;5.93;;;;;;;;;;5053714;28;20043;-88
2021/03/30 09:05:50;;;;;;;11.77;6.75;;;;;;;;;;5057085;28;20086;-88
2021/03/30 09:08:33;;;;;;;16.35;6.78;;;;;;;;;;5052374;28;20025;-88
2021/03/30 09:11:16;;;;;;;16.00;6.57;;;;;;;;;;5047738;28;20086;-88
2021/03/30 09:13:42;;;;;;;20.50;7.22;;;;;;;;;;5045423;28;20025;-88
2021/03/30 09:16:09;;;;;;;20.75;6.55;;;;;;;;;;5055622;28;20048;-88
2021/03/30 09:18:36;;;;;;;15.25;7.28;;;;;;;;;;5054227;28;20059;-89
2021/03/30 09:21:15;;;;;;;16.23;7.03;;;;;;;;;;5047350;28;20052;-88
2021/03/30 09:23:42;;;;;;;12.77;6.78;;;;;;;;;;5051017;28;20047;-88
2021/03/30 09:26:12;;;;;;;14.98;6.07;;;;;;;;;;5051828;28;20106;-88
2021/03/30 09:28:40;;;;;;;16.55;7.15;;;;;;;;;;5047423;28;20025;-89
2021/03/30 09:31:06;;;;;;;19.35;6.90;;;;;;;;;;5051934;28;20541;-88
2021/03/30 09:33:33;;;;;;;14.98;6.55;;;;;;;;;;5053205;28;20514;-89
2021/03/30 09:36:02;;;;;;;14.88;6.68;;;;;;;;;;5053432;28;20036;-88
2021/03/30 09:38:28;;;;;;;14.48;6.63;;;;;;;;;;5064391;28;20021;-89
2021/03/30 09:40:54;;;;;;;14.65;6.32;;;;;;;;;;5052253;28;20473;-89
2021/03/30 09:43:20;;;;;;;16.35;6.50;;;;;;;;;;5056172;28;20033;-88
2021/03/30 09:45:47;;;;;;;15.00;7.47;;;;;;;;;;5058449;28;20025;-88
2021/03/30 09:48:14;;;;;;;12.80;6.32;;;;;;;;;;5061220;28;20035;-88
2021/03/30 09:50:47;;;;;;;16.23;6.85;;;;;;;;;;5054604;28;20079;-89
2021/03/30 09:53:13;;;;;;;11.05;5.50;;;;;;;;;;5049594;28;20039;-89
2021/03/30 09:55:46;;;;;;;15.68;6.63;;;;;;;;;;5046789;28;20021;-89
2021/03/30 09:58:19;;;;;;;14.10;7.35;;;;;;;;;;5055482;28;20017;-89
2021/03/30 10:00:49;;;;;;;15.68;6.30;;;;;;;;;;5055556;28;20373;-90
2021/03/30 10:03:16;;;;;;;14.52;7.22;;;;;;;;;;5042941;28;20411;-90
2021/03/30 10:05:44;;;;;;;14.82;6.20;;;;;;;;;;5055949;28;20025;-89
2021/03/30 10:08:26;;;;;;;11.93;6.43;;;;;;;;;;5055831;28;20017;-90
2021/03/30 10:10:55;;;;;;;13.80;6.25;;;;;;;;;;5056232;28;20033;-90
2021/03/30 10:13:25;;;;;;;14.15;6.43;;;;;;;;;;5061973;28;20024;-91
2021/03/30 10:15:51;;;;;;;13.88;6.35;;;;;;;;;;5073951;28;20092;-90
2021/03/30 10:18:18;;;;;;;13.98;5.15;;;;;;;;;;5078434;28;20017;-90
2021/03/30 10:20:45;;;;;;;14.25;6.10;;;;;;;;;;5055982;28;20036;-89
2021/03/30 10:23:19;;;;;;;11.35;5.43;;;;;;;;;;5054909;28;20076;-89
2021/03/30 10:25:46;;;;;;;22.80;6.50;;;;;;;;;;5055338;28;20032;-89
2021/03/30 10:28:12;;;;;;;15.55;6.32;;;;;;;;;;5055224;28;20021;-89
2021/03/30 10:30:49;;;;;;;11.18;5.15;;;;;;;;;;5051184;28;20033;-89
2021/03/30 10:33:33;;;;;;;14.82;5.65;;;;;;;;;;5053190;28;20082;-90
2021/03/30 10:36:05;;;;;;;17.30;6.47;;;;;;;;;;5046569;28;20036;-89
2021/03/30 10:38:31;;;;;;;13.32;6.07;;;;;;;;;;5056191;28;20414;-89
2021/03/30 10:41:07;;;;;;;12.70;6.20;;;;;;;;;;5066743;28;20028;-89
2021/03/30 10:43:34;;;;;;;15.45;6.70;;;;;;;;;;5058697;28;20052;-89
2021/03/30 10:46:00;;;;;;;14.05;6.47;;;;;;;;;;5052270;28;20041;-89
2021/03/30 10:48:26;;;;;;;15.88;6.80;;;;;;;;;;5050768;28;20526;-88
2021/03/30 10:50:54;;;;;;;10.45;5.97;;;;;;;;;;5046770;28;20105;-89
2021/03/30 10:53:21;;;;;;;15.85;6.28;;;;;;;;;;5057314;28;20116;-89
2021/03/30 10:55:47;;;;;;;20.08;6.53;;;;;;;;;;5056157;28;20029;-89
2021/03/30 10:58:15;;;;;;;15.85;6.78;;;;;;;;;;5053579;28;20071;-89
2021/03/30 11:00:42;;;;;;;12.93;6.60;;;;;;;;;;5053662;28;20028;-89
2021/03/30 11:03:08;;;;;;;14.00;6.25;;;;;;;;;;5051266;28;20021;-89
2021/03/30 11:05:37;;;;;;;12.75;7.05;;;;;;;;;;5052888;28;20087;-90
2021/03/30 11:08:04;;;;;;;14.63;6.10;;;;;;;;;;5053328;28;20033;-90
2021/03/30 11:10:33;;;;;;;15.70;6.97;;;;;;;;;;5051888;28;20024;-90
2021/03/30 11:12:59;;;;;;;14.65;6.55;;;;;;;;;;5052302;28;20029;-90
2021/03/30 11:15:25;;;;;;;11.68;5.47;;;;;;;;;;5054440;28;20032;-90
2021/03/30 11:17:51;;;;;;;9.23;4.90;;;;;;;;;;5052540;28;20469;-90
2021/03/30 11:20:17;;;;;;;11.45;4.97;;;;;;;;;;5052021;28;20037;-89
2021/03/30 11:22:44;;;;;;;7.70;4.32;;;;;;;;;;5053542;28;20029;-90
2021/03/30 11:25:11;;;;;;;12.27;5.20;;;;;;;;;;5058118;28;20040;-90
2021/03/30 11:27:38;;;;;;;12.90;5.95;;;;;;;;;;5053518;28;20029;-90
2021/03/30 11:35:20;;;;;;;13.00;5.75;;;;;;;;;;5053603;28;20028;-90
2021/03/30 11:40:31;;;;;;;10.50;5.05;;;;;;;;;;5045078;28;20491;-90
2021/03/30 11:42:57;;;;;;;12.90;5.30;;;;;;;;;;5056941;28;20365;-91
2021/03/30 11:45:23;;;;;;;12.30;5.32;;;;;;;;;;5053037;28;20075;-91
2021/03/30 11:47:49;;;;;;;9.77;4.95;;;;;;;;;;5056425;28;20460;-88
2021/03/30 11:50:15;;;;;;;9.25;5.10;;;;;;;;;;5049277;28;20021;-88
2021/03/30 11:52:41;;;;;;;9.70;5.88;;;;;;;;;;5054177;28;20033;-88
2021/03/30 11:55:07;;;;;;;12.10;5.28;;;;;;;;;;5051287;28;20029;-88
2021/03/30 11:57:33;;;;;;;8.75;4.60;;;;;;;;;;5053917;28;20043;-88
2021/03/30 11:59:59;;;;;;;11.07;5.40;;;;;;;;;;5044449;28;20112;-88
2021/03/30 12:02:28;;;;;;;14.20;6.13;;;;;;;;;;5054522;28;20021;-88
2021/03/30 12:04:54;;;;;;;16.73;6.13;;;;;;;;;;5039263;28;20029;-90
2021/03/30 12:07:20;;;;;;;13.20;5.55;;;;;;;;;;5052348;28;20029;-88
2021/03/30 12:09:46;;;;;;;13.57;6.10;;;;;;;;;;5052241;28;20025;-88
2021/03/30 12:12:12;;;;;;;9.30;5.15;;;;;;;;;;5038562;28;20072;-88
2021/03/30 12:14:40;;;;;;;10.57;5.60;;;;;;;;;;5053406;28;20388;-88
2021/03/30 12:17:06;;;;;;;12.68;5.70;;;;;;;;;;5052805;28;20029;-89
2021/03/30 12:19:32;;;;;;;10.63;4.85;;;;;;;;;;5053208;28;20017;-89
2021/03/30 12:21:58;;;;;;;11.45;4.45;;;;;;;;;;5054010;28;20037;-88
2021/03/30 12:24:24;;;;;;;12.38;4.57;;;;;;;;;;5053409;28;20047;-88
2021/03/30 12:26:50;;;;;;;13.52;5.40;;;;;;;;;;5052275;28;20031;-89
2021/03/30 12:29:16;;;;;;;11.05;5.28;;;;;;;;;;5049760;28;20024;-88
2021/03/30 12:31:42;;;;;;;12.35;5.60;;;;;;;;;;5055578;28;20028;-88
2021/03/30 12:34:09;;;;;;;12.77;5.75;;;;;;;;;;5058089;28;20025;-88
2021/03/30 12:36:35;;;;;;;9.50;4.30;;;;;;;;;;5053560;28;20017;-89
2021/03/30 12:39:01;;;;;;;10.68;4.70;;;;;;;;;;5049864;28;20028;-88
2021/03/30 12:41:27;;;;;;;12.13;5.10;;;;;;;;;;5051426;28;20021;-89
2021/03/30 12:43:53;;;;;;;13.02;5.72;;;;;;;;;;5059352;28;20243;-88
2021/03/30 12:46:19;;;;;;;10.10;4.78;;;;;;;;;;5052204;28;20032;-89
2021/03/30 12:48:45;;;;;;;10.15;4.65;;;;;;;;;;5053980;28;20024;-89
2021/03/30 12:51:12;;;;;;;8.25;3.90;;;;;;;;;;5055955;28;20156;-89
2021/03/30 12:53:39;;;;;;;8.68;4.13;;;;;;;;;;5051205;28;20032;-89
2021/03/30 12:56:05;;;;;;;9.07;4.20;;;;;;;;;;5051125;28;20053;-89
2021/03/30 12:58:31;;;;;;;9.48;4.40;;;;;;;;;;5044935;28;20104;-89
2021/03/30 13:00:57;;;;;;;8.00;5.20;;;;;;;;;;5050205;28;20017;-90
2021/03/30 13:03:23;;;;;;;10.60;5.20;;;;;;;;;;5051399;28;20071;-89
2021/03/30 13:05:49;;;;;;;10.43;4.43;;;;;;;;;;5051254;28;20428;-89
2021/03/30 13:08:15;;;;;;;11.30;4.63;;;;;;;;;;5051132;28;20160;-89
2021/03/30 13:10:41;;;;;;;8.85;3.83;;;;;;;;;;5052215;28;20096;-89
2021/03/30 13:13:07;;;;;;;10.45;4.15;;;;;;;;;;5050171;28;20021;-89
2021/03/30 13:15:34;;;;;;;8.98;3.75;;;;;;;;;;5051553;28;20052;-88
2021/03/30 13:17:59;;;;;;;23.17;5.43;;;;;;;;;;5050217;28;20064;-88
2021/03/30 13:20:26;;;;;;;5.22;3.35;;;;;;;;;;5053238;28;20052;-88
2021/03/30 13:22:53;;;;;;;7.13;3.58;;;;;;;;;;5049329;28;20052;-89
2021/03/30 13:25:30;;;;;;;8.10;3.05;;;;;;;;;;5050205;28;20116;-89
2021/03/30 13:27:56;;;;;;;8.75;3.22;;;;;;;;;;5046340;28;20073;-89
2021/03/30 13:30:22;;;;;;;11.38;3.90;;;;;;;;;;5042362;28;20392;-88
2021/03/30 13:32:48;;;;;;;11.20;4.03;;;;;;;;;;5043269;28;20029;-88
2021/03/30 13:35:14;;;;;;;8.75;4.03;;;;;;;;;;5050369;28;20495;-89
2021/03/30 13:37:40;;;;;;;8.38;3.83;;;;;;;;;;5049979;28;20033;-89
2021/03/30 13:40:07;;;;;;;9.00;3.47;;;;;;;;;;5050451;28;20392;-89
2021/03/30 13:42:33;;;;;;;8.60;3.70;;;;;;;;;;5050720;28;20042;-89
2021/03/30 13:44:59;;;;;;;9.15;3.45;;;;;;;;;;5049199;28;20063;-88
2021/03/30 13:47:25;;;;;;;11.23;4.15;;;;;;;;;;5047817;28;20388;-89
2021/03/30 13:49:51;;;;;;;9.32;4.95;;;;;;;;;;5052008;28;20028;-89
2021/03/30 13:52:17;;;;;;;7.25;3.85;;;;;;;;;;5047836;28;20476;-89
2021/03/30 13:54:43;;;;;;;7.20;3.72;;;;;;;;;;5050961;28;20047;-89
2021/03/30 13:57:09;;;;;;;7.78;3.50;;;;;;;;;;5051616;28;20119;-89
2021/03/30 13:59:49;;;;;;;8.45;3.17;;;;;;;;;;5056572;28;20456;-89
2021/03/30 14:02:15;;;;;;;6.15;3.00;;;;;;;;;;5057622;28;20025;-89
2021/03/30 14:04:43;;;;;;;8.35;2.97;;;;;;;;;;5068849;28;20064;-89
2021/03/30 14:07:09;;;;;;;6.13;2.47;;;;;;;;;;5066410;28;20036;-88
2021/03/30 14:09:35;;;;;;;14.15;2.85;;;;;;;;;;5050341;28;20555;-89
2021/03/30 14:12:07;;;;;;;6.32;3.35;;;;;;;;;;5049072;28;20170;-88
2021/03/30 14:14:41;;;;;;;9.13;4.07;;;;;;;;;;5046480;28;20403;-88
2021/03/30 14:17:24;;;;;;;8.90;4.10;;;;;;;;;;5048868;28;20044;-88
2021/03/30 14:19:54;;;;;;;10.93;4.82;;;;;;;;;;5045978;28;20457;-88
2021/03/30 14:22:46;;;;;;;12.80;4.80;;;;;;;;;;5050567;28;20021;-89
2021/03/30 14:25:26;;;;;;;10.90;4.70;;;;;;;;;;5042154;28;20404;-88
2021/03/30 14:27:53;;;;;;;8.15;4.15;;;;;;;;;;5033377;28;20084;-89
2021/03/30 14:30:19;;;;;;;10.60;5.53;;;;;;;;;;5050267;28;20119;-88
2021/03/30 14:32:45;;;;;;;12.32;4.75;;;;;;;;;;5047384;28;20029;-88
2021/03/30 14:35:15;;;;;;;15.80;5.80;;;;;;;;;;5051088;28;20033;-88
2021/03/30 14:37:41;;;;;;;14.55;5.00;;;;;;;;;;5035551;28;20498;-88
2021/03/30 14:42:39;;;;;;;11.70;4.40;;;;;;;;;;5052890;28;20036;-88
2021/03/30 14:45:18;;;;;;;10.63;4.03;;;;;;;;;;5054741;28;20387;-88
2021/03/30 14:50:39;;;;;;;11.13;5.55;;;;;;;;;;5054754;28;20047;-90
2021/03/30 14:51:57;;;;;;;11.48;5.28;;;;;;;;;;5055711;28;20041;-88
2021/03/30 14:53:34;;;;;;;14.63;5.10;;;;;;;;;;5058007;28;20029;-88
2021/03/30 14:56:05;;;;;;;14.20;5.15;;;;;;;;;;5057569;28;20033;-88
2021/03/30 14:58:47;;;;;;;11.35;5.68;;;;;;;;;;5054948;28;20028;-88